createdAt,value
2023-01-22T00:02:05.819Z,39.70
2023-01-22T00:04:32.755Z,40.50
2023-01-22T00:06:59.202Z,38.30
2023-01-22T00:09:25.742Z,42.10
2023-01-22T00:11:52.560Z,43.67
2023-01-22T00:14:19.050Z,46.60
2023-01-22T00:16:45.513Z,35.50
2023-01-22T00:19:11.977Z,39.17
2023-01-22T00:21:38.435Z,37.53
2023-01-22T00:24:05.067Z,38.03
2023-01-22T00:26:31.495Z,34.70
2023-01-22T00:28:58.012Z,36.00
2023-01-22T00:31:24.563Z,35.67
2023-01-22T00:33:51.132Z,49.13
2023-01-22T00:36:20.169Z,32.47
2023-01-22T00:38:47.141Z,34.50
2023-01-22T00:41:14.987Z,34.77
2023-01-22T00:43:41.985Z,36.73
2023-01-22T00:46:10.482Z,36.57
2023-01-22T00:48:37.416Z,36.10
2023-01-22T00:51:05.035Z,35.00
2023-01-22T00:53:31.522Z,41.70
2023-01-22T00:56:00.779Z,41.67
2023-01-22T00:58:28.096Z,34.43
2023-01-22T01:00:55.446Z,35.47
2023-01-22T01:03:31.248Z,37.57
2023-01-22T01:05:57.625Z,34.23
2023-01-22T01:08:25.012Z,34.00
2023-01-22T01:11:00.047Z,39.80
2023-01-22T01:13:28.051Z,35.17
2023-01-22T01:16:06.890Z,40.53
2023-01-22T01:18:34.506Z,39.40
2023-01-22T01:21:01.234Z,35.40
2023-01-22T01:23:28.578Z,40.90
2023-01-22T01:25:55.513Z,42.60
2023-01-22T01:28:22.600Z,35.63
2023-01-22T01:30:49.103Z,35.67
2023-01-22T01:33:15.639Z,38.23
2023-01-22T01:35:42.195Z,40.87
2023-01-22T01:38:08.817Z,35.80
2023-01-22T01:40:35.537Z,40.87
2023-01-22T01:43:02.003Z,33.37
2023-01-22T01:45:29.925Z,37.60
2023-01-22T01:48:33.757Z,36.90
2023-01-22T01:51:06.639Z,37.47
2023-01-22T01:53:33.298Z,40.90
2023-01-22T01:56:03.093Z,36.33
2023-01-22T01:58:34.091Z,35.30
2023-01-22T02:01:07.884Z,37.73
2023-01-22T02:03:34.589Z,39.47
2023-01-22T02:06:01.006Z,39.60
2023-01-22T02:08:27.700Z,37.10
2023-01-22T02:10:54.346Z,43.37
2023-01-22T02:13:27.450Z,38.13
2023-01-22T02:15:54.376Z,39.17
2023-01-22T02:18:20.785Z,39.60
2023-01-22T02:20:58.803Z,38.63
2023-01-22T02:23:26.294Z,40.20
2023-01-22T02:25:53.231Z,41.83
2023-01-22T02:28:19.750Z,43.20
2023-01-22T02:30:46.562Z,45.90
2023-01-22T02:33:13.089Z,39.73
2023-01-22T02:35:39.492Z,39.57
2023-01-22T02:38:06.067Z,46.20
2023-01-22T02:40:33.789Z,42.37
2023-01-22T02:43:00.473Z,41.27
2023-01-22T02:45:27.039Z,38.87
2023-01-22T02:47:53.526Z,46.43
2023-01-22T02:50:20.541Z,38.83
2023-01-22T02:52:47.034Z,38.00
2023-01-22T02:55:13.501Z,35.83
2023-01-22T02:57:39.940Z,38.17
2023-01-22T03:00:07.111Z,45.63
2023-01-22T03:02:33.628Z,43.90
2023-01-22T03:05:03.518Z,36.43
2023-01-22T03:07:41.934Z,42.23
2023-01-22T03:10:17.496Z,36.83
2023-01-22T03:13:03.627Z,38.80
2023-01-22T03:15:48.903Z,38.53
2023-01-22T03:18:33.755Z,41.97
2023-01-22T03:21:16.281Z,40.00
2023-01-22T03:23:44.911Z,40.67
2023-01-22T03:26:11.547Z,41.40
2023-01-22T03:28:38.256Z,40.73
2023-01-22T03:31:05.748Z,40.17
2023-01-22T03:33:32.491Z,38.60
2023-01-22T03:36:04.315Z,34.50
2023-01-22T03:38:30.917Z,35.90
2023-01-22T03:41:05.452Z,40.10
2023-01-22T03:43:33.148Z,33.60
2023-01-22T03:46:04.447Z,31.50
2023-01-22T03:48:31.072Z,33.80
2023-01-22T03:50:57.823Z,32.27
2023-01-22T03:53:24.263Z,35.37
2023-01-22T03:56:01.629Z,33.70
2023-01-22T03:58:29.984Z,32.00
2023-01-22T04:00:59.839Z,30.43
2023-01-22T04:03:28.170Z,33.87
2023-01-22T04:05:55.337Z,28.53
2023-01-22T04:08:22.136Z,29.63
2023-01-22T04:10:48.684Z,30.83
2023-01-22T04:13:15.165Z,30.50
2023-01-22T04:15:44.719Z,31.13
2023-01-22T04:18:11.888Z,32.60
2023-01-22T04:20:39.239Z,33.63
2023-01-22T04:23:06.524Z,28.60
2023-01-22T04:25:33.293Z,29.40
2023-01-22T04:27:59.818Z,31.00
2023-01-22T04:30:26.304Z,27.67
2023-01-22T04:32:52.752Z,28.13
2023-01-22T04:35:19.222Z,31.43
2023-01-22T04:37:45.690Z,27.70
2023-01-22T04:40:12.509Z,27.43
2023-01-22T04:42:38.991Z,27.30
2023-01-22T04:45:05.939Z,23.70
2023-01-22T04:47:32.490Z,27.63
2023-01-22T04:49:58.982Z,26.60
2023-01-22T04:52:25.405Z,28.80
2023-01-22T04:54:53.304Z,25.27
2023-01-22T04:57:19.748Z,26.70
2023-01-22T04:59:46.182Z,29.30
2023-01-22T05:02:12.692Z,26.50
2023-01-22T05:04:39.107Z,27.37
2023-01-22T05:07:05.598Z,25.47
2023-01-22T05:09:32.049Z,27.17
2023-01-22T05:11:58.542Z,29.00
2023-01-22T05:14:24.990Z,28.00
2023-01-22T05:16:51.424Z,26.77
2023-01-22T05:19:17.851Z,28.63
2023-01-22T05:21:44.299Z,26.77
2023-01-22T05:24:10.813Z,27.83
2023-01-22T05:26:37.270Z,27.17
2023-01-22T05:29:03.821Z,26.03
2023-01-22T05:31:30.592Z,28.40
2023-01-22T05:33:57.226Z,27.57
2023-01-22T05:36:23.647Z,26.90
2023-01-22T05:38:50.074Z,27.03
2023-01-22T05:41:16.492Z,28.20
2023-01-22T05:43:42.938Z,27.53
2023-01-22T05:46:09.409Z,27.83
2023-01-22T05:48:35.852Z,26.47
2023-01-22T05:51:04.706Z,30.27
2023-01-22T05:53:31.171Z,29.33
2023-01-22T05:56:05.075Z,27.77
2023-01-22T05:58:32.532Z,25.73
2023-01-22T06:00:59.205Z,31.40
2023-01-22T06:03:25.691Z,28.37
2023-01-22T06:06:12.305Z,25.97
2023-01-22T06:08:39.407Z,26.40
2023-01-22T06:11:12.807Z,26.70
2023-01-22T06:13:39.704Z,25.27
2023-01-22T06:16:06.948Z,28.97
2023-01-22T06:18:33.536Z,26.00
2023-01-22T06:21:05.623Z,26.13
2023-01-22T06:23:32.306Z,24.27
2023-01-22T06:26:00.036Z,25.37
2023-01-22T06:28:26.534Z,26.27
2023-01-22T06:30:57.295Z,27.50
2023-01-22T06:33:24.505Z,29.03
2023-01-22T06:35:55.334Z,27.57
2023-01-22T06:38:22.735Z,26.30
2023-01-22T06:40:59.987Z,27.07
2023-01-22T06:43:27.992Z,34.57
2023-01-22T06:45:54.940Z,25.07
2023-01-22T06:48:21.458Z,29.23
2023-01-22T06:50:48.053Z,28.83
2023-01-22T06:53:14.597Z,28.20
2023-01-22T06:55:41.053Z,28.67
2023-01-22T06:58:07.463Z,25.00
2023-01-22T07:00:33.877Z,24.90
2023-01-22T07:03:00.381Z,31.53
2023-01-22T07:05:27.447Z,27.33
2023-01-22T07:07:55.131Z,27.07
2023-01-22T07:10:22.332Z,30.23
2023-01-22T07:12:49.951Z,24.33
2023-01-22T07:15:16.517Z,26.23
2023-01-22T07:17:43.081Z,25.40
2023-01-22T07:20:10.178Z,24.37
2023-01-22T07:22:36.597Z,28.57
2023-01-22T07:25:03.421Z,27.40
2023-01-22T07:27:32.395Z,23.97
2023-01-22T07:29:58.874Z,25.93
2023-01-22T07:32:25.346Z,26.10
2023-01-22T07:34:51.941Z,23.53
2023-01-22T07:37:18.991Z,25.23
2023-01-22T07:39:47.607Z,25.20
2023-01-22T07:42:14.083Z,24.70
2023-01-22T07:44:40.579Z,24.97
2023-01-22T07:47:07.119Z,22.27
2023-01-22T07:49:33.640Z,25.60
2023-01-22T07:52:00.239Z,22.97
2023-01-22T07:54:26.790Z,22.40
2023-01-22T07:56:53.241Z,22.63
2023-01-22T07:59:19.762Z,25.10
2023-01-22T08:01:46.334Z,22.07
2023-01-22T08:04:12.810Z,22.60
2023-01-22T08:06:39.365Z,27.10
2023-01-22T08:09:06.586Z,28.33
2023-01-22T08:11:33.029Z,25.40
2023-01-22T08:13:59.470Z,25.77
2023-01-22T08:16:25.913Z,22.43
2023-01-22T08:18:52.400Z,22.63
2023-01-22T08:21:18.852Z,23.20
2023-01-22T08:23:48.887Z,24.60
2023-01-22T08:26:15.564Z,23.60
2023-01-22T08:28:42.080Z,24.80
2023-01-22T08:31:16.493Z,21.20
2023-01-22T08:33:49.413Z,25.20
2023-01-22T08:36:15.849Z,24.27
2023-01-22T08:38:42.287Z,23.30
2023-01-22T08:41:08.775Z,23.10
2023-01-22T08:43:35.250Z,26.27
2023-01-22T08:46:01.701Z,23.23
2023-01-22T08:48:28.124Z,23.60
2023-01-22T08:50:54.580Z,27.73
2023-01-22T08:53:21.020Z,22.83
2023-01-22T08:55:50.780Z,25.07
2023-01-22T08:58:17.992Z,22.07
2023-01-22T09:00:44.655Z,21.17
2023-01-22T09:03:11.226Z,23.40
2023-01-22T09:05:39.898Z,23.20
2023-01-22T09:08:07.807Z,25.00
2023-01-22T09:10:34.375Z,23.17
2023-01-22T09:13:01.252Z,22.87
2023-01-22T09:15:27.990Z,21.27
2023-01-22T09:17:54.620Z,20.10
2023-01-22T09:20:21.390Z,22.73
2023-01-22T09:22:49.366Z,21.93
2023-01-22T09:25:15.957Z,21.20
2023-01-22T09:27:42.446Z,22.27
2023-01-22T09:30:09.693Z,23.33
2023-01-22T09:32:36.469Z,23.10
2023-01-22T09:35:02.996Z,21.63
2023-01-22T09:37:29.443Z,20.77
2023-01-22T09:39:55.946Z,21.77
2023-01-22T09:42:34.973Z,21.57
2023-01-22T09:45:07.115Z,25.50
2023-01-22T09:47:43.994Z,26.83
2023-01-22T09:50:21.648Z,22.60
2023-01-22T09:52:51.648Z,23.33
2023-01-22T09:55:22.122Z,26.63
2023-01-22T09:57:52.028Z,25.93
2023-01-22T10:00:21.960Z,24.40
2023-01-22T10:02:55.924Z,26.00
2023-01-22T10:05:57.712Z,22.80
2023-01-22T10:08:31.283Z,23.53
2023-01-22T10:11:01.030Z,25.27
2023-01-22T10:13:36.257Z,24.50
2023-01-22T10:16:04.081Z,26.40
2023-01-22T10:18:39.615Z,25.07
2023-01-22T10:21:11.937Z,25.10
2023-01-22T10:23:38.465Z,23.60
2023-01-22T10:26:17.594Z,24.60
2023-01-22T10:28:50.269Z,23.43
2023-01-22T10:31:35.284Z,28.97
2023-01-22T10:34:13.048Z,25.43
2023-01-22T10:36:39.553Z,25.67
2023-01-22T10:39:12.243Z,23.00
2023-01-22T10:41:39.934Z,25.70
2023-01-22T10:44:16.556Z,27.03
2023-01-22T10:46:43.450Z,23.63
2023-01-22T10:49:22.732Z,25.50
2023-01-22T10:51:58.095Z,24.43
2023-01-22T10:54:45.945Z,26.43
2023-01-22T10:57:26.908Z,24.73
2023-01-22T11:00:04.195Z,26.67
2023-01-22T11:02:33.057Z,29.90
2023-01-22T11:05:18.428Z,27.90
2023-01-22T11:07:47.523Z,26.57
2023-01-22T11:10:28.052Z,26.00
2023-01-22T11:13:05.397Z,26.10
2023-01-22T11:15:54.232Z,25.20
2023-01-22T11:18:31.389Z,26.23
2023-01-22T11:21:00.625Z,28.93
2023-01-22T11:23:52.350Z,27.80
2023-01-22T11:26:34.075Z,25.47
2023-01-22T11:29:28.246Z,25.53
2023-01-22T11:32:22.649Z,24.77
2023-01-22T11:35:18.459Z,24.67
2023-01-22T11:37:57.161Z,25.17
2023-01-22T11:40:33.137Z,30.60
2023-01-22T11:43:21.011Z,27.73
2023-01-22T11:45:59.689Z,24.30
2023-01-22T11:48:48.180Z,28.40
2023-01-22T11:51:19.715Z,25.00
2023-01-22T11:54:16.901Z,27.57
2023-01-22T11:56:52.560Z,27.63
2023-01-22T11:59:28.396Z,27.53
2023-01-22T12:02:24.161Z,29.10
2023-01-22T12:05:09.493Z,27.90
2023-01-22T12:07:59.524Z,26.07
2023-01-22T12:10:28.983Z,27.47
2023-01-22T12:13:20.381Z,25.57
2023-01-22T12:16:19.171Z,25.20
2023-01-22T12:19:00.888Z,26.73
2023-01-22T12:22:04.931Z,28.27
2023-01-22T12:24:39.471Z,26.03
2023-01-22T12:27:12.185Z,30.47
2023-01-22T12:29:45.105Z,28.07
2023-01-22T12:32:15.233Z,28.23
2023-01-22T12:34:41.729Z,25.97
2023-01-22T12:37:14.863Z,26.90
2023-01-22T12:40:05.426Z,30.27
2023-01-22T12:42:41.464Z,30.03
2023-01-22T12:45:31.161Z,27.37
2023-01-22T12:48:03.535Z,27.93
2023-01-22T12:50:29.959Z,27.33
2023-01-22T12:53:05.285Z,26.40
2023-01-22T12:55:38.203Z,30.27
2023-01-22T12:58:05.026Z,30.07
2023-01-22T13:00:39.102Z,29.00
2023-01-22T13:03:32.906Z,30.23
2023-01-22T13:06:02.078Z,31.57
2023-01-22T13:08:39.110Z,30.70
2023-01-22T13:11:11.454Z,29.00
2023-01-22T13:13:47.264Z,28.10
2023-01-22T13:16:26.878Z,32.70
2023-01-22T13:18:56.651Z,31.23
2023-01-22T13:21:27.732Z,28.90
2023-01-22T13:24:01.870Z,32.47
2023-01-22T13:26:32.145Z,32.83
2023-01-22T13:29:21.055Z,35.33
2023-01-22T13:31:56.175Z,30.87
2023-01-22T13:34:23.137Z,34.50
2023-01-22T13:36:51.395Z,34.93
2023-01-22T13:39:23.965Z,31.87
2023-01-22T13:41:53.075Z,33.27
2023-01-22T13:44:32.766Z,35.20
2023-01-22T13:46:59.496Z,35.17
2023-01-22T13:49:31.913Z,36.17
2023-01-22T13:52:05.822Z,32.47
2023-01-22T13:54:45.230Z,32.40
2023-01-22T13:57:20.106Z,34.63
2023-01-22T13:59:53.823Z,34.03
2023-01-22T14:02:21.402Z,32.83
2023-01-22T14:04:48.857Z,34.40
2023-01-22T14:07:26.957Z,35.90
2023-01-22T14:09:54.095Z,33.70
2023-01-22T14:12:24.261Z,31.20
2023-01-22T14:14:51.518Z,34.43
2023-01-22T14:17:34.197Z,29.67
2023-01-22T14:20:02.424Z,30.53
2023-01-22T14:22:28.898Z,33.33
2023-01-22T14:24:55.454Z,32.50
2023-01-22T14:27:23.411Z,34.90
2023-01-22T14:29:50.688Z,39.53
2023-01-22T14:32:17.140Z,32.83
2023-01-22T14:34:43.631Z,33.27
2023-01-22T14:37:13.781Z,34.50
2023-01-22T14:39:40.240Z,33.50
2023-01-22T14:42:06.710Z,32.47
2023-01-22T14:44:33.244Z,34.10
2023-01-22T14:46:59.702Z,34.83
2023-01-22T14:49:26.179Z,36.20
2023-01-22T14:51:53.690Z,39.17
2023-01-22T14:54:20.232Z,36.47
2023-01-22T14:56:46.678Z,37.43
2023-01-22T14:59:13.102Z,34.77
2023-01-22T15:01:39.521Z,29.27
2023-01-22T15:04:06.501Z,39.60
2023-01-22T15:06:33.099Z,35.23
2023-01-22T15:09:00.115Z,34.33
2023-01-22T15:11:26.588Z,34.50
2023-01-22T15:13:55.163Z,32.10
2023-01-22T15:16:21.621Z,39.60
2023-01-22T15:18:48.074Z,35.07
2023-01-22T15:21:14.620Z,38.07
2023-01-22T15:23:41.012Z,43.13
2023-01-22T15:26:21.968Z,43.00
2023-01-22T15:28:48.405Z,37.70
2023-01-22T15:31:14.937Z,35.87
2023-01-22T15:33:41.450Z,38.43
2023-01-22T15:36:08.625Z,38.73
2023-01-22T15:38:35.171Z,37.63
2023-01-22T15:41:32.444Z,46.70
2023-01-22T15:44:01.288Z,37.40
2023-01-22T15:46:38.566Z,32.50
2023-01-22T15:49:08.059Z,38.00
2023-01-22T15:51:35.453Z,35.70
2023-01-22T15:54:04.057Z,40.80
2023-01-22T15:56:36.364Z,38.60
2023-01-22T15:59:03.955Z,40.80
2023-01-22T16:01:30.455Z,39.03
2023-01-22T16:03:57.156Z,39.23
2023-01-22T16:06:28.466Z,36.60
2023-01-22T16:09:00.260Z,37.80
2023-01-22T16:11:28.641Z,43.43
2023-01-22T16:13:55.904Z,38.60
2023-01-22T16:16:25.980Z,44.93
2023-01-22T16:18:53.774Z,46.17
2023-01-22T16:21:22.020Z,39.93
2023-01-22T16:23:51.993Z,41.57
2023-01-22T16:26:22.041Z,42.70
2023-01-22T16:28:57.131Z,43.30
2023-01-22T16:31:29.016Z,44.37
2023-01-22T16:34:00.779Z,42.70
2023-01-22T16:36:29.621Z,40.83
2023-01-22T16:38:56.464Z,40.53
2023-01-22T16:41:28.388Z,43.40
2023-01-22T16:44:07.130Z,48.00
2023-01-22T16:46:35.845Z,48.37
2023-01-22T16:49:08.130Z,51.90
2023-01-22T16:51:40.713Z,44.07
2023-01-22T16:54:07.839Z,43.80
2023-01-22T16:56:35.116Z,41.23
2023-01-22T16:59:01.657Z,45.63
2023-01-22T17:01:31.315Z,40.53
2023-01-22T17:03:57.823Z,48.30
2023-01-22T17:06:42.754Z,52.87
2023-01-22T17:09:15.398Z,48.97
2023-01-22T17:11:43.604Z,48.97
2023-01-22T17:14:10.506Z,44.60
2023-01-22T17:16:38.425Z,44.97
2023-01-22T17:19:05.317Z,49.73
2023-01-22T17:21:31.845Z,47.00
2023-01-22T17:23:58.349Z,42.97
2023-01-22T17:26:24.814Z,55.47
2023-01-22T17:28:51.248Z,52.90
2023-01-22T17:31:22.181Z,51.43
2023-01-22T17:33:49.525Z,54.97
2023-01-22T17:36:19.098Z,50.60
2023-01-22T17:38:45.805Z,52.10
2023-01-22T17:41:15.823Z,57.43
2023-01-22T17:43:43.766Z,50.93
2023-01-22T17:46:16.547Z,53.00
2023-01-22T17:48:44.304Z,53.13
2023-01-22T17:51:13.376Z,48.00
2023-01-22T17:53:42.219Z,55.47
2023-01-22T17:56:16.550Z,54.43
2023-01-22T17:58:45.979Z,53.10
2023-01-22T18:01:15.078Z,50.57
2023-01-22T18:03:41.901Z,48.20
2023-01-22T18:06:08.868Z,46.17
2023-01-22T18:08:38.517Z,50.83
2023-01-22T18:11:14.638Z,54.20
2023-01-22T18:13:41.836Z,54.17
2023-01-22T18:16:12.095Z,52.83
2023-01-22T18:18:39.291Z,47.13
2023-01-22T18:21:07.060Z,54.23
2023-01-22T18:23:33.622Z,44.30
2023-01-22T18:26:04.024Z,48.30
2023-01-22T18:28:31.148Z,55.00
2023-01-22T18:31:06.104Z,53.13
2023-01-22T18:33:34.231Z,60.83
2023-01-22T18:36:00.758Z,49.63
2023-01-22T18:38:28.504Z,49.20
2023-01-22T18:40:56.264Z,58.87
2023-01-22T18:43:23.010Z,47.93
2023-01-22T18:45:49.510Z,49.63
2023-01-22T18:48:16.480Z,46.07
2023-01-22T18:50:43.009Z,54.23
2023-01-22T18:53:09.793Z,49.80
2023-01-22T18:55:36.890Z,53.00
2023-01-22T18:58:08.715Z,54.33
2023-01-22T19:00:37.126Z,56.23
2023-01-22T19:03:04.081Z,61.70
2023-01-22T19:05:30.656Z,55.33
2023-01-22T19:07:57.059Z,62.83
2023-01-22T19:10:23.947Z,46.37
2023-01-22T19:12:50.475Z,51.63
2023-01-22T19:15:17.434Z,54.37
2023-01-22T19:17:44.194Z,60.70
2023-01-22T19:20:13.038Z,60.37
2023-01-22T19:22:39.453Z,58.93
2023-01-22T19:25:06.818Z,53.30
2023-01-22T19:27:35.542Z,57.13
2023-01-22T19:30:02.378Z,60.00
2023-01-22T19:32:30.343Z,57.93
2023-01-22T19:34:57.682Z,55.17
2023-01-22T19:37:25.114Z,58.23
2023-01-22T19:39:51.733Z,58.53
2023-01-22T19:42:18.480Z,58.33
2023-01-22T19:44:45.402Z,66.83
2023-01-22T19:47:12.317Z,62.47
2023-01-22T19:49:39.768Z,57.13
2023-01-22T19:52:06.328Z,60.00
2023-01-22T19:54:32.836Z,59.43
2023-01-22T19:56:59.315Z,57.93
2023-01-22T19:59:25.810Z,46.23
2023-01-22T20:01:52.585Z,57.23
2023-01-22T20:04:23.986Z,59.20
2023-01-22T20:06:55.120Z,47.60
2023-01-22T20:09:22.091Z,57.63
2023-01-22T20:11:52.855Z,60.30
2023-01-22T20:14:24.173Z,53.90
2023-01-22T20:16:51.243Z,57.03
2023-01-22T20:19:18.331Z,48.17
2023-01-22T20:21:44.814Z,52.37
2023-01-22T20:24:11.272Z,51.80
2023-01-22T20:26:37.761Z,52.93
2023-01-22T20:29:04.617Z,57.37
2023-01-22T20:31:31.319Z,58.30
2023-01-22T20:33:58.170Z,56.30
2023-01-22T20:36:27.781Z,50.20
2023-01-22T20:38:55.092Z,54.20
2023-01-22T20:41:22.972Z,50.53
2023-01-22T20:43:50.096Z,56.23
2023-01-22T20:46:20.001Z,49.97
2023-01-22T20:48:47.292Z,53.17
2023-01-22T20:51:17.271Z,50.33
2023-01-22T20:53:45.377Z,52.90
2023-01-22T20:56:15.094Z,49.43
2023-01-22T20:58:42.328Z,55.70
2023-01-22T21:01:15.583Z,60.73
2023-01-22T21:03:43.047Z,49.50
2023-01-22T21:06:13.592Z,68.10
2023-01-22T21:08:41.599Z,52.67
2023-01-22T21:11:11.274Z,50.83
2023-01-22T21:13:39.855Z,55.63
2023-01-22T21:16:15.311Z,48.87
2023-01-22T21:18:44.716Z,55.87
2023-01-22T21:21:21.839Z,46.33
2023-01-22T21:23:50.780Z,45.47
2023-01-22T21:26:19.671Z,39.33
2023-01-22T21:28:47.958Z,40.57
2023-01-22T21:31:17.365Z,39.50
2023-01-22T21:33:44.533Z,32.93
2023-01-22T21:36:12.665Z,37.33
2023-01-22T21:38:39.537Z,33.03
2023-01-22T21:41:08.825Z,30.83
2023-01-22T21:43:54.354Z,40.43
2023-01-22T21:46:27.596Z,30.53
2023-01-22T21:48:58.259Z,28.57
2023-01-22T21:51:29.447Z,27.77
2023-01-22T21:53:58.210Z,31.50
2023-01-22T21:56:25.427Z,31.70
2023-01-22T21:58:52.033Z,27.93
2023-01-22T22:01:21.736Z,27.17
2023-01-22T22:03:48.565Z,27.57
2023-01-22T22:06:15.126Z,26.17
2023-01-22T22:08:43.439Z,28.13
2023-01-22T22:11:12.444Z,28.00
2023-01-22T22:13:39.088Z,24.40
2023-01-22T22:16:07.997Z,24.00
2023-01-22T22:18:34.857Z,25.30
2023-01-22T22:21:04.825Z,25.90
2023-01-22T22:23:31.850Z,23.80
2023-01-22T22:25:58.925Z,25.83
2023-01-22T22:28:25.589Z,28.27
2023-01-22T22:30:52.440Z,24.23
2023-01-22T22:33:19.328Z,24.03
2023-01-22T22:35:47.349Z,27.53
2023-01-22T22:38:14.792Z,28.10
2023-01-22T22:40:41.781Z,27.63
2023-01-22T22:43:08.996Z,27.20
2023-01-22T22:45:37.653Z,29.53
2023-01-22T22:48:05.306Z,28.93
2023-01-22T22:50:31.863Z,27.87
2023-01-22T22:52:58.362Z,27.47
2023-01-22T22:55:26.601Z,31.70
2023-01-22T22:57:53.313Z,44.87
2023-01-22T23:00:20.242Z,33.63
2023-01-22T23:02:47.044Z,29.60
2023-01-22T23:05:13.509Z,28.00
2023-01-22T23:07:39.981Z,30.20
2023-01-22T23:10:07.687Z,28.00
2023-01-22T23:12:34.102Z,27.27
2023-01-22T23:15:00.564Z,25.70
2023-01-22T23:17:27.027Z,27.03
2023-01-22T23:19:53.500Z,25.73
2023-01-22T23:22:19.903Z,25.97
2023-01-22T23:24:47.163Z,27.87
2023-01-22T23:27:13.618Z,30.20
2023-01-22T23:29:40.082Z,29.00
2023-01-22T23:32:06.522Z,31.43
2023-01-22T23:34:32.952Z,27.50
2023-01-22T23:36:59.421Z,27.23
2023-01-22T23:39:25.857Z,26.53
2023-01-22T23:41:52.302Z,25.80
2023-01-22T23:44:18.862Z,24.90
2023-01-22T23:46:45.773Z,22.83
2023-01-22T23:49:12.747Z,25.57
2023-01-22T23:51:42.086Z,27.03
2023-01-22T23:54:09.003Z,25.47
2023-01-22T23:56:35.525Z,23.23
2023-01-22T23:59:01.967Z,23.80
